sensor_id;sensor_type;location;lat;lon;timestamp;pressure;altitude;pressure_sealevel;temperature;humidity
14242;BME280;7205;50.864;12.766;2023-05-29T00:01:07;97858.63;;;11.41;64.62
14242;BME280;7205;50.864;12.766;2023-05-29T00:03:34;97858.97;;;11.38;64.52
14242;BME280;7205;50.864;12.766;2023-05-29T00:06:03;97858.31;;;11.36;65.08
14242;BME280;7205;50.864;12.766;2023-05-29T00:08:31;97859.50;;;11.33;65.38
14242;BME280;7205;50.864;12.766;2023-05-29T00:10:58;97856.22;;;11.31;65.51
14242;BME280;7205;50.864;12.766;2023-05-29T00:13:25;97857.38;;;11.29;65.68
14242;BME280;7205;50.864;12.766;2023-05-29T00:15:52;97864.66;;;11.27;65.94
14242;BME280;7205;50.864;12.766;2023-05-29T00:18:18;97857.91;;;11.24;65.66
14242;BME280;7205;50.864;12.766;2023-05-29T00:20:46;97851.97;;;11.22;66.16
14242;BME280;7205;50.864;12.766;2023-05-29T00:23:14;97850.50;;;11.20;66.03
14242;BME280;7205;50.864;12.766;2023-05-29T00:25:41;97848.84;;;11.19;66.25
14242;BME280;7205;50.864;12.766;2023-05-29T00:28:07;97853.47;;;11.17;66.40
14242;BME280;7205;50.864;12.766;2023-05-29T00:30:35;97856.28;;;11.15;66.89
14242;BME280;7205;50.864;12.766;2023-05-29T00:33:01;97854.66;;;11.14;66.92
14242;BME280;7205;50.864;12.766;2023-05-29T00:35:28;97850.53;;;11.12;67.26
14242;BME280;7205;50.864;12.766;2023-05-29T00:37:55;97851.72;;;11.09;66.85
14242;BME280;7205;50.864;12.766;2023-05-29T00:40:23;97844.78;;;11.08;66.96
14242;BME280;7205;50.864;12.766;2023-05-29T00:42:50;97845.94;;;11.06;67.20
14242;BME280;7205;50.864;12.766;2023-05-29T00:45:17;97841.84;;;11.03;67.46
14242;BME280;7205;50.864;12.766;2023-05-29T00:47:44;97835.91;;;11.01;66.98
14242;BME280;7205;50.864;12.766;2023-05-29T00:50:12;97839.53;;;11.00;66.96
14242;BME280;7205;50.864;12.766;2023-05-29T00:52:41;97846.00;;;10.98;67.25
14242;BME280;7205;50.864;12.766;2023-05-29T00:55:09;97841.84;;;10.95;67.30
14242;BME280;7205;50.864;12.766;2023-05-29T00:57:37;97844.66;;;10.94;67.47
14242;BME280;7205;50.864;12.766;2023-05-29T01:00:05;97836.09;;;10.92;67.94
14242;BME280;7205;50.864;12.766;2023-05-29T01:02:35;97841.53;;;10.90;67.63
14242;BME280;7205;50.864;12.766;2023-05-29T01:05:03;97846.22;;;10.88;67.69
14242;BME280;7205;50.864;12.766;2023-05-29T01:07:32;97851.63;;;10.87;67.80
14242;BME280;7205;50.864;12.766;2023-05-29T01:09:59;97842.25;;;10.84;67.59
14242;BME280;7205;50.864;12.766;2023-05-29T01:12:34;97846.88;;;10.82;68.01
14242;BME280;7205;50.864;12.766;2023-05-29T01:15:18;97849.03;;;10.79;67.96
14242;BME280;7205;50.864;12.766;2023-05-29T01:20:48;97840.63;;;10.75;68.17
14242;BME280;7205;50.864;12.766;2023-05-29T01:23:58;97846.25;;;10.72;68.12
14242;BME280;7205;50.864;12.766;2023-05-29T01:29:18;97850.56;;;10.65;68.85
14242;BME280;7205;50.864;12.766;2023-05-29T01:31:47;97847.91;;;10.65;69.39
14242;BME280;7205;50.864;12.766;2023-05-29T01:34:15;97843.81;;;10.63;69.14
14242;BME280;7205;50.864;12.766;2023-05-29T01:36:43;97844.00;;;10.61;69.06
14242;BME280;7205;50.864;12.766;2023-05-29T01:39:12;97843.34;;;10.59;69.06
14242;BME280;7205;50.864;12.766;2023-05-29T01:41:41;97850.59;;;10.57;68.99
14242;BME280;7205;50.864;12.766;2023-05-29T01:44:10;97849.13;;;10.55;69.64
14242;BME280;7205;50.864;12.766;2023-05-29T01:46:39;97859.88;;;10.53;69.50
14242;BME280;7205;50.864;12.766;2023-05-29T01:49:07;97859.03;;;10.53;69.47
14242;BME280;7205;50.864;12.766;2023-05-29T01:51:35;97859.22;;;10.51;69.37
14242;BME280;7205;50.864;12.766;2023-05-29T01:54:02;97855.06;;;10.49;69.75
14242;BME280;7205;50.864;12.766;2023-05-29T01:56:29;97848.16;;;10.48;69.84
14242;BME280;7205;50.864;12.766;2023-05-29T01:59:01;97853.59;;;10.46;70.25
14242;BME280;7205;50.864;12.766;2023-05-29T02:01:29;97851.16;;;10.45;70.27
14242;BME280;7205;50.864;12.766;2023-05-29T02:03:56;97850.47;;;10.43;70.57
14242;BME280;7205;50.864;12.766;2023-05-29T02:06:23;97858.56;;;10.41;70.53
14242;BME280;7205;50.864;12.766;2023-05-29T02:08:50;97854.44;;;10.39;70.17
14242;BME280;7205;50.864;12.766;2023-05-29T02:11:18;97855.63;;;10.36;70.80
14242;BME280;7205;50.864;12.766;2023-05-29T02:13:46;97853.16;;;10.35;70.60
14242;BME280;7205;50.864;12.766;2023-05-29T02:16:14;97861.25;;;10.33;70.77
14242;BME280;7205;50.864;12.766;2023-05-29T02:18:42;97860.56;;;10.31;71.20
14242;BME280;7205;50.864;12.766;2023-05-29T02:21:09;97859.09;;;10.29;71.13
14242;BME280;7205;50.864;12.766;2023-05-29T02:23:36;97860.25;;;10.26;71.31
14242;BME280;7205;50.864;12.766;2023-05-29T02:26:03;97856.13;;;10.24;71.01
14242;BME280;7205;50.864;12.766;2023-05-29T02:28:30;97859.75;;;10.23;71.18
14242;BME280;7205;50.864;12.766;2023-05-29T02:30:58;97857.47;;;10.20;71.96
14242;BME280;7205;50.864;12.766;2023-05-29T02:33:26;97866.53;;;10.17;71.72
14242;BME280;7205;50.864;12.766;2023-05-29T02:35:53;97863.06;;;10.17;72.35
14242;BME280;7205;50.864;12.766;2023-05-29T02:38:20;97859.13;;;10.13;71.72
14242;BME280;7205;50.864;12.766;2023-05-29T02:40:47;97869.66;;;10.13;72.07
14242;BME280;7205;50.864;12.766;2023-05-29T02:43:13;97864.56;;;10.11;72.02
14242;BME280;7205;50.864;12.766;2023-05-29T02:45:40;97865.72;;;10.08;72.02
14242;BME280;7205;50.864;12.766;2023-05-29T02:48:07;97863.19;;;10.07;72.51
14242;BME280;7205;50.864;12.766;2023-05-29T02:50:35;97865.00;;;10.06;72.58
14242;BME280;7205;50.864;12.766;2023-05-29T02:53:02;97872.28;;;10.04;72.74
14242;BME280;7205;50.864;12.766;2023-05-29T02:55:29;97872.44;;;10.03;72.90
14242;BME280;7205;50.864;12.766;2023-05-29T02:57:57;97869.00;;;10.02;73.21
14242;BME280;7205;50.864;12.766;2023-05-29T03:00:25;97876.22;;;10.00;72.81
14242;BME280;7205;50.864;12.766;2023-05-29T03:02:57;97880.69;;;10.00;73.33
14242;BME280;7205;50.864;12.766;2023-05-29T03:05:23;97875.41;;;10.00;73.58
14242;BME280;7205;50.864;12.766;2023-05-29T03:07:53;97878.88;;;10.00;73.42
14242;BME280;7205;50.864;12.766;2023-05-29T03:10:20;97878.88;;;10.00;74.16
14242;BME280;7205;50.864;12.766;2023-05-29T03:12:47;97891.91;;;10.02;74.33
14242;BME280;7205;50.864;12.766;2023-05-29T03:15:15;97886.63;;;10.02;74.59
14242;BME280;7205;50.864;12.766;2023-05-29T03:17:42;97885.63;;;10.03;74.66
14242;BME280;7205;50.864;12.766;2023-05-29T03:20:13;97885.63;;;10.03;74.41
14242;BME280;7205;50.864;12.766;2023-05-29T03:22:41;97886.94;;;10.07;75.05
14242;BME280;7205;50.864;12.766;2023-05-29T03:25:12;97896.84;;;10.13;75.55
14242;BME280;7205;50.864;12.766;2023-05-29T03:27:39;97892.41;;;10.22;75.61
14242;BME280;7205;50.864;12.766;2023-05-29T03:30:11;97892.59;;;10.28;75.84
14242;BME280;7205;50.864;12.766;2023-05-29T03:32:39;97887.47;;;10.35;75.94
14242;BME280;7205;50.864;12.766;2023-05-29T03:35:07;97902.44;;;10.42;75.82
14242;BME280;7205;50.864;12.766;2023-05-29T03:37:36;97900.97;;;10.48;76.10
14242;BME280;7205;50.864;12.766;2023-05-29T03:40:04;97908.53;;;10.51;75.96
14242;BME280;7205;50.864;12.766;2023-05-29T03:42:33;97908.84;;;10.56;75.82
14242;BME280;7205;50.864;12.766;2023-05-29T03:45:01;97904.91;;;10.60;76.46
14242;BME280;7205;50.864;12.766;2023-05-29T03:47:29;97908.66;;;10.65;75.80
14242;BME280;7205;50.864;12.766;2023-05-29T03:49:55;97903.88;;;10.69;75.71
14242;BME280;7205;50.864;12.766;2023-05-29T03:52:22;97903.03;;;10.76;75.87
14242;BME280;7205;50.864;12.766;2023-05-29T03:54:49;97907.63;;;10.82;75.94
14242;BME280;7205;50.864;12.766;2023-05-29T03:57:16;97913.06;;;10.89;74.93
14242;BME280;7205;50.864;12.766;2023-05-29T03:59:45;97911.22;;;10.97;74.92
14242;BME280;7205;50.864;12.766;2023-05-29T04:02:12;97915.47;;;11.06;74.42
14242;BME280;7205;50.864;12.766;2023-05-29T04:04:40;97909.50;;;11.12;74.85
14242;BME280;7205;50.864;12.766;2023-05-29T04:07:07;97911.47;;;11.18;73.92
14242;BME280;7205;50.864;12.766;2023-05-29T04:09:34;97909.13;;;11.23;74.38
14242;BME280;7205;50.864;12.766;2023-05-29T04:12:00;97918.00;;;11.30;74.28
14242;BME280;7205;50.864;12.766;2023-05-29T04:14:28;97915.66;;;11.35;74.13
14242;BME280;7205;50.864;12.766;2023-05-29T04:16:57;97932.47;;;11.43;74.14
14242;BME280;7205;50.864;12.766;2023-05-29T04:19:24;97927.31;;;11.49;73.09
14242;BME280;7205;50.864;12.766;2023-05-29T04:21:51;97925.81;;;11.55;73.27
14242;BME280;7205;50.864;12.766;2023-05-29T04:24:18;97924.47;;;11.59;73.43
14242;BME280;7205;50.864;12.766;2023-05-29T04:26:45;97928.25;;;11.64;73.52
14242;BME280;7205;50.864;12.766;2023-05-29T04:29:12;97925.91;;;11.69;73.43
14242;BME280;7205;50.864;12.766;2023-05-29T04:31:40;97924.41;;;11.75;73.19
14242;BME280;7205;50.864;12.766;2023-05-29T04:34:08;97920.25;;;11.80;72.95
14242;BME280;7205;50.864;12.766;2023-05-29T04:36:39;97926.63;;;11.86;72.88
14242;BME280;7205;50.864;12.766;2023-05-29T04:39:09;97926.13;;;11.90;72.92
14242;BME280;7205;50.864;12.766;2023-05-29T04:41:36;97937.00;;;11.95;72.46
14242;BME280;7205;50.864;12.766;2023-05-29T04:44:06;97933.81;;;12.00;72.52
14242;BME280;7205;50.864;12.766;2023-05-29T04:46:42;97928.53;;;12.00;72.57
14242;BME280;7205;50.864;12.766;2023-05-29T04:49:11;97937.41;;;12.07;72.81
14242;BME280;7205;50.864;12.766;2023-05-29T04:51:38;97934.03;;;12.13;73.03
14242;BME280;7205;50.864;12.766;2023-05-29T04:54:06;97934.50;;;12.16;72.93
14242;BME280;7205;50.864;12.766;2023-05-29T04:56:34;97936.44;;;12.22;73.18
14242;BME280;7205;50.864;12.766;2023-05-29T04:59:02;97936.91;;;12.26;72.85
14242;BME280;7205;50.864;12.766;2023-05-29T05:01:29;97944.16;;;12.32;73.40
14242;BME280;7205;50.864;12.766;2023-05-29T05:03:59;97949.75;;;12.37;73.25
14242;BME280;7205;50.864;12.766;2023-05-29T05:06:27;97948.03;;;12.44;73.47
14242;BME280;7205;50.864;12.766;2023-05-29T05:08:54;97948.94;;;12.51;73.92
14242;BME280;7205;50.864;12.766;2023-05-29T05:11:22;97946.22;;;12.59;73.67
14242;BME280;7205;50.864;12.766;2023-05-29T05:13:51;97946.34;;;12.66;73.53
14242;BME280;7205;50.864;12.766;2023-05-29T05:16:18;97950.53;;;12.75;73.49
14242;BME280;7205;50.864;12.766;2023-05-29T05:18:44;97958.41;;;12.83;73.67
14242;BME280;7205;50.864;12.766;2023-05-29T05:21:11;97954.84;;;12.90;73.66
14242;BME280;7205;50.864;12.766;2023-05-29T05:23:40;97959.25;;;12.98;73.47
14242;BME280;7205;50.864;12.766;2023-05-29T05:26:09;97961.00;;;13.05;73.19
14242;BME280;7205;50.864;12.766;2023-05-29T05:28:37;97954.81;;;13.13;72.49
14242;BME280;7205;50.864;12.766;2023-05-29T05:31:06;97950.59;;;13.18;71.74
14242;BME280;7205;50.864;12.766;2023-05-29T05:33:34;97955.44;;;13.29;71.12
14242;BME280;7205;50.864;12.766;2023-05-29T05:36:02;97961.47;;;13.38;70.80
14242;BME280;7205;50.864;12.766;2023-05-29T05:38:29;97965.84;;;13.45;70.50
14242;BME280;7205;50.864;12.766;2023-05-29T05:40:59;97968.38;;;13.53;70.26
14242;BME280;7205;50.864;12.766;2023-05-29T05:43:30;97967.47;;;13.61;70.10
14242;BME280;7205;50.864;12.766;2023-05-29T05:46:07;97973.69;;;13.68;69.54
14242;BME280;7205;50.864;12.766;2023-05-29T05:48:36;97979.69;;;13.76;68.83
14242;BME280;7205;50.864;12.766;2023-05-29T05:51:02;97982.44;;;13.83;67.91
14242;BME280;7205;50.864;12.766;2023-05-29T05:53:30;97979.84;;;13.90;66.45
14242;BME280;7205;50.864;12.766;2023-05-29T05:55:59;97977.28;;;13.96;65.89
14242;BME280;7205;50.864;12.766;2023-05-29T05:58:26;97969.38;;;14.03;65.18
14242;BME280;7205;50.864;12.766;2023-05-29T06:00:53;97974.56;;;14.11;65.06
14242;BME280;7205;50.864;12.766;2023-05-29T06:03:20;97977.28;;;14.17;64.73
14242;BME280;7205;50.864;12.766;2023-05-29T06:05:59;97981.84;;;14.23;64.57
14242;BME280;7205;50.864;12.766;2023-05-29T06:08:26;97986.63;;;14.28;64.65
14242;BME280;7205;50.864;12.766;2023-05-29T06:10:53;97982.38;;;14.33;64.58
14242;BME280;7205;50.864;12.766;2023-05-29T06:13:21;97986.28;;;14.37;64.22
14242;BME280;7205;50.864;12.766;2023-05-29T06:15:52;97981.22;;;14.42;64.70
14242;BME280;7205;50.864;12.766;2023-05-29T06:18:19;97985.78;;;14.48;64.92
14242;BME280;7205;50.864;12.766;2023-05-29T06:20:47;97992.34;;;14.52;65.03
14242;BME280;7205;50.864;12.766;2023-05-29T06:23:14;97987.47;;;14.56;65.05
14242;BME280;7205;50.864;12.766;2023-05-29T06:25:41;97990.19;;;14.62;64.91
14242;BME280;7205;50.864;12.766;2023-05-29T06:28:08;97993.09;;;14.67;65.47
14242;BME280;7205;50.864;12.766;2023-05-29T06:30:38;98007.47;;;14.73;65.41
14242;BME280;7205;50.864;12.766;2023-05-29T06:33:07;97995.25;;;14.78;64.94
14242;BME280;7205;50.864;12.766;2023-05-29T06:35:36;97998.31;;;14.82;64.53
14242;BME280;7205;50.864;12.766;2023-05-29T06:38:03;98006.38;;;14.88;63.77
14242;BME280;7205;50.864;12.766;2023-05-29T06:40:30;98003.13;;;14.93;63.44
14242;BME280;7205;50.864;12.766;2023-05-29T06:43:00;98007.84;;;14.97;63.40
14242;BME280;7205;50.864;12.766;2023-05-29T06:45:48;98002.56;;;15.04;62.97
14242;BME280;7205;50.864;12.766;2023-05-29T06:48:16;98005.47;;;15.09;62.53
14242;BME280;7205;50.864;12.766;2023-05-29T06:50:45;98011.88;;;15.15;62.37
14242;BME280;7205;50.864;12.766;2023-05-29T06:53:35;98005.94;;;15.19;61.68
14242;BME280;7205;50.864;12.766;2023-05-29T06:56:02;98015.84;;;15.25;61.43
14242;BME280;7205;50.864;12.766;2023-05-29T06:58:30;98011.75;;;15.29;60.77
14242;BME280;7205;50.864;12.766;2023-05-29T07:01:04;98019.75;;;15.36;60.83
14242;BME280;7205;50.864;12.766;2023-05-29T07:03:31;98024.16;;;15.43;60.77
14242;BME280;7205;50.864;12.766;2023-05-29T07:06:00;98023.38;;;15.49;60.46
14242;BME280;7205;50.864;12.766;2023-05-29T07:08:28;98015.41;;;15.56;60.76
14242;BME280;7205;50.864;12.766;2023-05-29T07:10:54;98022.63;;;15.62;60.36
14242;BME280;7205;50.864;12.766;2023-05-29T07:13:24;98027.97;;;15.68;60.24
14242;BME280;7205;50.864;12.766;2023-05-29T07:15:52;98025.75;;;15.72;60.15
14242;BME280;7205;50.864;12.766;2023-05-29T07:18:26;98030.06;;;15.79;60.46
14242;BME280;7205;50.864;12.766;2023-05-29T07:20:55;98035.19;;;15.81;60.29
14242;BME280;7205;50.864;12.766;2023-05-29T07:23:24;98029.09;;;15.87;60.10
14242;BME280;7205;50.864;12.766;2023-05-29T07:25:52;98037.31;;;15.92;59.95
14242;BME280;7205;50.864;12.766;2023-05-29T07:28:19;98042.84;;;15.97;59.65
14242;BME280;7205;50.864;12.766;2023-05-29T07:30:46;98039.59;;;16.01;59.78
14242;BME280;7205;50.864;12.766;2023-05-29T07:33:13;98038.81;;;16.07;59.66
14242;BME280;7205;50.864;12.766;2023-05-29T07:35:41;98047.03;;;16.12;59.46
14242;BME280;7205;50.864;12.766;2023-05-29T07:38:09;98046.41;;;16.17;59.21
14242;BME280;7205;50.864;12.766;2023-05-29T07:40:37;98053.16;;;16.19;58.41
14242;BME280;7205;50.864;12.766;2023-05-29T07:43:03;98039.28;;;16.24;58.17
14242;BME280;7205;50.864;12.766;2023-05-29T07:45:43;98044.19;;;16.27;58.21
14242;BME280;7205;50.864;12.766;2023-05-29T07:48:12;98046.44;;;16.30;58.06
14242;BME280;7205;50.864;12.766;2023-05-29T07:50:42;98044.00;;;16.35;58.03
14242;BME280;7205;50.864;12.766;2023-05-29T07:53:09;98047.09;;;16.39;58.12
14242;BME280;7205;50.864;12.766;2023-05-29T07:55:38;98046.47;;;16.43;57.85
14242;BME280;7205;50.864;12.766;2023-05-29T07:58:05;98053.09;;;16.47;57.37
14242;BME280;7205;50.864;12.766;2023-05-29T08:00:33;98047.13;;;16.52;57.24
14242;BME280;7205;50.864;12.766;2023-05-29T08:03:02;98052.69;;;16.57;57.39
14242;BME280;7205;50.864;12.766;2023-05-29T08:05:49;98048.41;;;16.62;57.74
14242;BME280;7205;50.864;12.766;2023-05-29T08:08:18;98057.22;;;16.69;57.34
14242;BME280;7205;50.864;12.766;2023-05-29T08:10:45;98063.38;;;16.76;56.70
14242;BME280;7205;50.864;12.766;2023-05-29T08:13:12;98061.75;;;16.82;56.63
14242;BME280;7205;50.864;12.766;2023-05-29T08:15:40;98066.28;;;16.88;56.26
14242;BME280;7205;50.864;12.766;2023-05-29T08:18:07;98071.84;;;16.93;55.48
14242;BME280;7205;50.864;12.766;2023-05-29T08:20:34;98070.38;;;16.97;54.89
14242;BME280;7205;50.864;12.766;2023-05-29T08:23:02;98074.91;;;17.03;53.92
14242;BME280;7205;50.864;12.766;2023-05-29T08:25:29;98068.97;;;17.07;52.86
14242;BME280;7205;50.864;12.766;2023-05-29T08:27:55;98069.78;;;17.14;52.49
14242;BME280;7205;50.864;12.766;2023-05-29T08:30:25;98075.91;;;17.21;52.70
14242;BME280;7205;50.864;12.766;2023-05-29T08:32:52;98073.25;;;17.28;52.50
14242;BME280;7205;50.864;12.766;2023-05-29T08:35:18;98068.13;;;17.33;52.53
14242;BME280;7205;50.864;12.766;2023-05-29T08:37:45;98064.41;;;17.40;53.10
14242;BME280;7205;50.864;12.766;2023-05-29T08:40:13;98064.63;;;17.45;52.99
14242;BME280;7205;50.864;12.766;2023-05-29T08:42:46;98065.88;;;17.49;52.62
14242;BME280;7205;50.864;12.766;2023-05-29T08:45:14;98062.97;;;17.58;52.50
14242;BME280;7205;50.864;12.766;2023-05-29T08:47:41;98064.19;;;17.62;51.47
14242;BME280;7205;50.864;12.766;2023-05-29T08:50:08;98078.56;;;17.67;50.60
14242;BME280;7205;50.864;12.766;2023-05-29T08:52:36;98066.44;;;17.71;50.34
14242;BME280;7205;50.864;12.766;2023-05-29T08:55:05;98064.75;;;17.77;50.43
14242;BME280;7205;50.864;12.766;2023-05-29T08:57:34;98068.25;;;17.84;50.28
14242;BME280;7205;50.864;12.766;2023-05-29T09:00:01;98066.59;;;17.89;50.48
14242;BME280;7205;50.864;12.766;2023-05-29T09:02:35;98061.22;;;17.96;50.64
14242;BME280;7205;50.864;12.766;2023-05-29T09:05:02;98067.38;;;18.03;50.70
14242;BME280;7205;50.864;12.766;2023-05-29T09:07:32;98072.69;;;18.09;50.30
14242;BME280;7205;50.864;12.766;2023-05-29T09:09:58;98060.53;;;18.13;49.02
14242;BME280;7205;50.864;12.766;2023-05-29T09:12:26;98060.72;;;18.18;48.24
14242;BME280;7205;50.864;12.766;2023-05-29T09:14:54;98065.44;;;18.23;48.11
14242;BME280;7205;50.864;12.766;2023-05-29T09:17:21;98063.97;;;18.27;47.50
14242;BME280;7205;50.864;12.766;2023-05-29T09:19:48;98063.13;;;18.33;47.49
14242;BME280;7205;50.864;12.766;2023-05-29T09:22:15;98060.63;;;18.38;47.66
14242;BME280;7205;50.864;12.766;2023-05-29T09:24:43;98057.31;;;18.42;47.76
14242;BME280;7205;50.864;12.766;2023-05-29T09:27:12;98067.97;;;18.49;47.47
14242;BME280;7205;50.864;12.766;2023-05-29T09:29:40;98066.53;;;18.53;47.32
14242;BME280;7205;50.864;12.766;2023-05-29T09:32:09;98065.88;;;18.57;47.45
14242;BME280;7205;50.864;12.766;2023-05-29T09:34:37;98059.91;;;18.62;47.12
14242;BME280;7205;50.864;12.766;2023-05-29T09:37:05;98063.56;;;18.67;47.17
14242;BME280;7205;50.864;12.766;2023-05-29T09:39:44;98067.44;;;18.71;46.23
14242;BME280;7205;50.864;12.766;2023-05-29T09:42:11;98071.31;;;18.75;46.41
14242;BME280;7205;50.864;12.766;2023-05-29T09:44:39;98079.31;;;18.82;46.60
14242;BME280;7205;50.864;12.766;2023-05-29T09:47:06;98076.59;;;18.89;46.35
14242;BME280;7205;50.864;12.766;2023-05-29T09:49:40;98073.88;;;18.95;46.26
14242;BME280;7205;50.864;12.766;2023-05-29T09:52:07;98066.00;;;19.00;46.56
14242;BME280;7205;50.864;12.766;2023-05-29T09:54:35;98078.28;;;19.08;46.37
14242;BME280;7205;50.864;12.766;2023-05-29T09:57:03;98077.84;;;19.11;46.44
14242;BME280;7205;50.864;12.766;2023-05-29T09:59:31;98078.63;;;19.18;46.05
14242;BME280;7205;50.864;12.766;2023-05-29T10:02:01;98079.00;;;19.21;46.06
14242;BME280;7205;50.864;12.766;2023-05-29T10:04:29;98079.78;;;19.28;46.22
14242;BME280;7205;50.864;12.766;2023-05-29T10:07:00;98071.72;;;19.35;45.66
14242;BME280;7205;50.864;12.766;2023-05-29T10:09:32;98070.03;;;19.40;45.57
14242;BME280;7205;50.864;12.766;2023-05-29T10:12:01;98064.59;;;19.47;45.70
14242;BME280;7205;50.864;12.766;2023-05-29T10:14:30;98075.47;;;19.52;45.88
14242;BME280;7205;50.864;12.766;2023-05-29T10:17:01;98074.81;;;19.56;45.04
14242;BME280;7205;50.864;12.766;2023-05-29T10:19:30;98073.34;;;19.60;44.64
14242;BME280;7205;50.864;12.766;2023-05-29T10:22:01;98073.09;;;19.62;44.69
14242;BME280;7205;50.864;12.766;2023-05-29T10:24:28;98066.25;;;19.66;44.57
14242;BME280;7205;50.864;12.766;2023-05-29T10:26:57;98070.97;;;19.70;44.57
14242;BME280;7205;50.864;12.766;2023-05-29T10:29:28;98068.44;;;19.75;44.07
14242;BME280;7205;50.864;12.766;2023-05-29T10:32:27;98069.03;;;19.77;43.47
14242;BME280;7205;50.864;12.766;2023-05-29T10:35:03;98066.69;;;19.81;42.76
14242;BME280;7205;50.864;12.766;2023-05-29T10:37:37;98068.97;;;19.84;42.16
14242;BME280;7205;50.864;12.766;2023-05-29T10:40:08;98073.66;;;19.88;42.14
14242;BME280;7205;50.864;12.766;2023-05-29T10:42:45;98068.28;;;19.88;41.64
14242;BME280;7205;50.864;12.766;2023-05-29T10:45:47;98060.25;;;19.88;41.54
14242;BME280;7205;50.864;12.766;2023-05-29T10:48:36;98064.13;;;19.92;41.94
14242;BME280;7205;50.864;12.766;2023-05-29T10:51:05;98065.91;;;19.98;42.22
14242;BME280;7205;50.864;12.766;2023-05-29T10:53:33;98054.50;;;20.03;42.43
14242;BME280;7205;50.864;12.766;2023-05-29T10:56:08;98050.09;;;20.09;42.71
14242;BME280;7205;50.864;12.766;2023-05-29T10:58:44;98052.50;;;20.17;42.32
14242;BME280;7205;50.864;12.766;2023-05-29T11:01:29;98057.56;;;20.25;41.98
14242;BME280;7205;50.864;12.766;2023-05-29T11:04:30;98049.28;;;20.26;40.07
14242;BME280;7205;50.864;12.766;2023-05-29T11:06:59;98040.94;;;20.34;40.10
14242;BME280;7205;50.864;12.766;2023-05-29T11:09:33;98044.47;;;20.46;40.75
14242;BME280;7205;50.864;12.766;2023-05-29T11:12:15;98044.06;;;20.61;40.82
14242;BME280;7205;50.864;12.766;2023-05-29T11:14:55;98042.94;;;20.80;41.42
14242;BME280;7205;50.864;12.766;2023-05-29T11:17:34;98034.94;;;20.91;39.90
14242;BME280;7205;50.864;12.766;2023-05-29T11:20:24;98041.75;;;21.05;39.00
14242;BME280;7205;50.864;12.766;2023-05-29T11:23:00;98031.13;;;21.22;38.70
14242;BME280;7205;50.864;12.766;2023-05-29T11:25:32;98029.38;;;21.39;38.44
14242;BME280;7205;50.864;12.766;2023-05-29T11:27:59;98034.16;;;21.60;38.92
14242;BME280;7205;50.864;12.766;2023-05-29T11:30:26;98035.09;;;21.77;39.29
14242;BME280;7205;50.864;12.766;2023-05-29T11:33:01;98038.59;;;21.89;38.85
14242;BME280;7205;50.864;12.766;2023-05-29T11:35:32;98035.44;;;21.92;38.36
14242;BME280;7205;50.864;12.766;2023-05-29T11:38:01;98038.81;;;21.99;38.31
14242;BME280;7205;50.864;12.766;2023-05-29T11:40:35;98037.63;;;22.07;36.83
14242;BME280;7205;50.864;12.766;2023-05-29T11:43:02;98038.25;;;22.25;36.38
14242;BME280;7205;50.864;12.766;2023-05-29T11:45:32;98040.19;;;22.53;36.34
14242;BME280;7205;50.864;12.766;2023-05-29T11:48:00;98037.19;;;22.83;35.74
14242;BME280;7205;50.864;12.766;2023-05-29T11:50:28;98038.13;;;23.05;35.89
14242;BME280;7205;50.864;12.766;2023-05-29T11:52:57;98038.78;;;23.12;35.51
14242;BME280;7205;50.864;12.766;2023-05-29T11:55:24;98032.47;;;23.06;35.42
14242;BME280;7205;50.864;12.766;2023-05-29T11:57:57;98026.94;;;22.96;35.27
14242;BME280;7205;50.864;12.766;2023-05-29T12:00:25;98032.16;;;22.86;35.33
14242;BME280;7205;50.864;12.766;2023-05-29T12:02:52;98033.84;;;22.76;34.69
14242;BME280;7205;50.864;12.766;2023-05-29T12:05:19;98031.06;;;22.71;34.14
14242;BME280;7205;50.864;12.766;2023-05-29T12:07:50;98033.28;;;22.74;34.42
14242;BME280;7205;50.864;12.766;2023-05-29T12:10:17;98029.13;;;22.83;34.21
14242;BME280;7205;50.864;12.766;2023-05-29T12:12:48;98030.19;;;22.98;34.33
14242;BME280;7205;50.864;12.766;2023-05-29T12:15:16;98025.72;;;23.20;34.04
14242;BME280;7205;50.864;12.766;2023-05-29T12:17:44;98030.44;;;23.46;34.08
14242;BME280;7205;50.864;12.766;2023-05-29T12:20:12;98030.16;;;23.65;33.00
14242;BME280;7205;50.864;12.766;2023-05-29T12:22:40;98030.81;;;23.72;33.02
14242;BME280;7205;50.864;12.766;2023-05-29T12:25:09;98031.56;;;23.67;32.98
14242;BME280;7205;50.864;12.766;2023-05-29T12:27:37;98031.16;;;23.58;33.13
14242;BME280;7205;50.864;12.766;2023-05-29T12:30:08;98033.16;;;23.46;33.79
14242;BME280;7205;50.864;12.766;2023-05-29T12:32:38;98033.81;;;23.37;33.59
14242;BME280;7205;50.864;12.766;2023-05-29T12:35:13;98041.97;;;23.25;33.64
14242;BME280;7205;50.864;12.766;2023-05-29T12:37:44;98025.13;;;23.18;33.47
14242;BME280;7205;50.864;12.766;2023-05-29T12:40:16;98022.19;;;23.20;33.71
14242;BME280;7205;50.864;12.766;2023-05-29T12:42:43;98028.75;;;23.24;33.33
14242;BME280;7205;50.864;12.766;2023-05-29T12:45:10;98022.88;;;23.27;33.14
14242;BME280;7205;50.864;12.766;2023-05-29T12:47:44;98015.13;;;23.30;33.41
14242;BME280;7205;50.864;12.766;2023-05-29T12:50:24;98021.41;;;23.36;33.69
14242;BME280;7205;50.864;12.766;2023-05-29T12:52:59;98020.66;;;23.40;33.78
14242;BME280;7205;50.864;12.766;2023-05-29T12:55:27;98019.91;;;23.45;33.64
14242;BME280;7205;50.864;12.766;2023-05-29T12:57:54;98011.91;;;23.50;33.09
14242;BME280;7205;50.864;12.766;2023-05-29T13:00:24;98011.66;;;23.51;33.10
14242;BME280;7205;50.864;12.766;2023-05-29T13:02:52;98010.34;;;23.54;33.09
14242;BME280;7205;50.864;12.766;2023-05-29T13:05:19;98011.22;;;23.59;32.65
14242;BME280;7205;50.864;12.766;2023-05-29T13:07:48;98003.19;;;23.65;32.83
14242;BME280;7205;50.864;12.766;2023-05-29T13:10:15;98010.88;;;23.73;32.50
14242;BME280;7205;50.864;12.766;2023-05-29T13:12:42;98005.38;;;23.84;32.84
14242;BME280;7205;50.864;12.766;2023-05-29T13:15:10;98012.75;;;23.94;32.41
14242;BME280;7205;50.864;12.766;2023-05-29T13:17:38;98009.56;;;23.97;32.16